createdAt,value
2023-02-23T00:00:33.074Z,15.10
2023-02-23T00:03:05.181Z,15.10
2023-02-23T00:05:37.469Z,15.20
2023-02-23T00:08:11.901Z,15.20
2023-02-23T00:10:44.643Z,15.20
2023-02-23T00:13:16.544Z,15.30
2023-02-23T00:15:48.373Z,15.30
2023-02-23T00:18:21.076Z,15.30
2023-02-23T00:20:57.729Z,15.10
2023-02-23T00:23:32.251Z,14.80
2023-02-23T00:26:04.463Z,14.50
2023-02-23T00:28:36.353Z,14.30
2023-02-23T00:31:08.399Z,14.10
2023-02-23T00:33:41.491Z,14.00
2023-02-23T00:36:15.274Z,13.90
2023-02-23T00:38:53.674Z,13.70
2023-02-23T00:41:28.596Z,13.70
2023-02-23T00:44:00.851Z,13.50
2023-02-23T00:46:32.705Z,13.40
2023-02-23T00:49:05.304Z,13.30
2023-02-23T00:51:37.764Z,13.30
2023-02-23T00:54:14.969Z,13.10
2023-02-23T00:56:47.410Z,13.10
2023-02-23T00:59:19.707Z,13.00
2023-02-23T01:01:52.604Z,12.90
2023-02-23T01:04:24.768Z,12.90
2023-02-23T01:06:56.933Z,12.80
2023-02-23T01:09:31.640Z,12.70
2023-02-23T01:12:07.685Z,12.60
2023-02-23T01:14:40.578Z,12.60
2023-02-23T01:17:12.687Z,12.50
2023-02-23T01:19:44.783Z,12.50
2023-02-23T01:22:16.864Z,12.40
2023-02-23T01:24:51.521Z,12.40
2023-02-23T01:27:24.144Z,12.40
2023-02-23T01:29:56.196Z,12.30
2023-02-23T01:32:28.243Z,12.30
2023-02-23T01:35:00.295Z,12.20
2023-02-23T01:37:35.514Z,12.20
2023-02-23T01:40:15.309Z,12.20
2023-02-23T01:42:47.573Z,12.10
2023-02-23T01:45:27.259Z,12.10
2023-02-23T01:48:03.925Z,12.10
2023-02-23T01:50:45.243Z,12.10
2023-02-23T01:53:21.482Z,12.10
2023-02-23T01:55:58.931Z,12.00
2023-02-23T01:58:32.427Z,12.00
2023-02-23T02:01:05.656Z,12.00
2023-02-23T02:03:45.025Z,12.00
2023-02-23T02:06:19.901Z,12.00
2023-02-23T02:08:55.301Z,12.00
2023-02-23T02:11:31.058Z,12.00
2023-02-23T02:14:12.944Z,12.00
2023-02-23T02:17:02.551Z,11.90
2023-02-23T02:20:13.751Z,11.90
2023-02-23T02:23:11.054Z,11.90
2023-02-23T02:25:55.841Z,11.90
2023-02-23T02:28:46.430Z,11.90
2023-02-23T02:31:58.950Z,11.90
2023-02-23T02:35:04.053Z,11.90
2023-02-23T02:37:56.831Z,11.80
2023-02-23T02:40:37.051Z,11.80
2023-02-23T02:43:16.822Z,11.80
2023-02-23T02:45:54.469Z,11.80
2023-02-23T02:48:35.536Z,11.80
2023-02-23T02:51:18.134Z,11.80
2023-02-23T02:54:06.998Z,11.80
2023-02-23T02:56:43.084Z,11.80
2023-02-23T02:59:36.018Z,11.80
2023-02-23T03:02:34.246Z,11.80
2023-02-23T03:05:32.478Z,11.80
2023-02-23T03:08:34.784Z,11.80
2023-02-23T03:11:30.879Z,11.70
2023-02-23T03:14:33.907Z,11.70
2023-02-23T03:17:31.774Z,11.70
2023-02-23T03:20:30.638Z,11.70
2023-02-23T03:23:29.765Z,11.70
2023-02-23T03:26:27.031Z,11.70
2023-02-23T03:29:24.359Z,11.60
2023-02-23T03:32:22.608Z,11.60
2023-02-23T03:35:20.996Z,11.50
2023-02-23T03:38:16.475Z,11.50
2023-02-23T03:41:10.241Z,11.50
2023-02-23T03:44:12.287Z,11.50
2023-02-23T03:47:07.021Z,11.50
2023-02-23T03:50:00.027Z,11.50
2023-02-23T03:52:54.546Z,11.50
2023-02-23T03:55:49.231Z,11.50
2023-02-23T03:58:44.424Z,11.50
2023-02-23T04:01:36.840Z,11.50
2023-02-23T04:04:31.031Z,11.50
2023-02-23T04:07:23.073Z,11.50
2023-02-23T04:10:14.071Z,11.50
2023-02-23T04:13:13.607Z,11.50
2023-02-23T04:15:50.952Z,11.50
2023-02-23T04:18:26.371Z,11.50
2023-02-23T04:21:01.964Z,11.50
2023-02-23T04:23:35.590Z,11.50
2023-02-23T04:26:07.620Z,11.50
2023-02-23T04:28:39.688Z,11.50
2023-02-23T04:31:11.697Z,11.50
2023-02-23T04:33:43.718Z,11.60
2023-02-23T04:36:18.310Z,11.60
2023-02-23T04:38:50.356Z,11.60
2023-02-23T04:41:22.462Z,11.60
2023-02-23T04:43:54.518Z,11.60
2023-02-23T04:46:26.603Z,11.60
2023-02-23T04:48:58.727Z,11.60
2023-02-23T04:51:34.112Z,11.60
2023-02-23T04:54:06.259Z,11.60
2023-02-23T04:56:39.555Z,11.60
2023-02-23T04:59:11.699Z,11.60
2023-02-23T05:01:43.825Z,11.60
2023-02-23T05:04:15.968Z,11.60
2023-02-23T05:06:50.774Z,11.60
2023-02-23T05:09:22.858Z,11.60
2023-02-23T05:11:55.608Z,11.60
2023-02-23T05:14:27.908Z,11.60
2023-02-23T05:16:59.964Z,11.60
2023-02-23T05:19:32.044Z,11.60
2023-02-23T05:22:06.649Z,11.60
2023-02-23T05:24:39.011Z,11.50
2023-02-23T05:27:13.976Z,11.50
2023-02-23T05:29:46.058Z,11.50
2023-02-23T05:32:18.224Z,11.50
2023-02-23T05:34:50.348Z,11.50
2023-02-23T05:37:25.055Z,11.50
2023-02-23T05:39:57.086Z,11.50
2023-02-23T05:42:29.149Z,11.50
2023-02-23T05:45:01.218Z,11.50
2023-02-23T05:47:35.590Z,11.40
2023-02-23T05:50:12.937Z,11.40
2023-02-23T05:52:47.710Z,11.40
2023-02-23T05:55:21.686Z,11.40
2023-02-23T05:57:53.898Z,11.40
2023-02-23T06:00:26.148Z,11.40
2023-02-23T06:02:58.369Z,11.40
2023-02-23T06:05:30.510Z,11.40
2023-02-23T06:08:06.048Z,11.40
2023-02-23T06:10:38.074Z,11.40
2023-02-23T06:13:10.543Z,11.40
2023-02-23T06:15:43.488Z,11.40
2023-02-23T06:18:15.846Z,11.40
2023-02-23T06:20:50.857Z,11.40
2023-02-23T06:23:25.473Z,11.40
2023-02-23T06:25:58.698Z,11.40
2023-02-23T06:28:30.812Z,11.40
2023-02-23T06:31:03.057Z,11.40
2023-02-23T06:33:35.364Z,11.40
2023-02-23T06:36:08.230Z,11.40
2023-02-23T06:38:42.832Z,11.40
2023-02-23T06:41:16.474Z,11.40
2023-02-23T06:43:48.633Z,11.40
2023-02-23T06:46:20.841Z,11.50
2023-02-23T06:48:55.848Z,11.50
2023-02-23T06:51:28.087Z,11.50
2023-02-23T06:54:02.698Z,11.50
2023-02-23T06:56:34.714Z,11.50
2023-02-23T06:59:07.395Z,11.50
2023-02-23T07:01:39.489Z,11.50
2023-02-23T07:04:11.871Z,11.50
2023-02-23T07:06:44.180Z,11.50
2023-02-23T07:09:18.936Z,11.50
2023-02-23T07:11:51.890Z,11.50
2023-02-23T07:14:26.955Z,11.50
2023-02-23T07:16:59.614Z,11.50
2023-02-23T07:19:32.055Z,11.50
2023-02-23T07:22:05.113Z,11.50
2023-02-23T07:24:39.892Z,11.50
2023-02-23T07:27:11.904Z,11.50
2023-02-23T07:29:43.927Z,11.50
2023-02-23T07:32:16.094Z,11.50
2023-02-23T07:34:48.189Z,11.40
2023-02-23T07:37:20.375Z,11.40
2023-02-23T07:39:55.042Z,11.40
2023-02-23T07:42:27.218Z,11.40
2023-02-23T07:45:01.895Z,11.40
2023-02-23T07:47:35.042Z,11.50
2023-02-23T07:50:10.041Z,11.50
2023-02-23T07:52:43.311Z,11.50
2023-02-23T07:55:18.571Z,11.50
2023-02-23T07:57:50.713Z,11.50
2023-02-23T08:00:25.132Z,11.60
2023-02-23T08:02:57.218Z,11.60
2023-02-23T08:05:32.853Z,11.60
2023-02-23T08:08:05.235Z,11.60
2023-02-23T08:10:40.136Z,11.60
2023-02-23T08:13:12.234Z,11.60
2023-02-23T08:15:44.343Z,11.60
2023-02-23T08:18:19.047Z,11.60
2023-02-23T08:20:51.196Z,11.70
2023-02-23T08:23:23.295Z,11.70
2023-02-23T08:25:59.758Z,11.70
2023-02-23T08:28:31.954Z,11.80
2023-02-23T08:31:08.728Z,11.80
2023-02-23T08:33:40.913Z,11.90
2023-02-23T08:36:12.997Z,11.90
2023-02-23T08:38:45.095Z,11.90
2023-02-23T08:41:20.249Z,12.00
2023-02-23T08:43:52.500Z,12.00
2023-02-23T08:46:24.545Z,12.00
2023-02-23T08:48:57.030Z,12.10
2023-02-23T08:51:31.891Z,12.10
2023-02-23T08:54:04.201Z,12.20
2023-02-23T08:56:39.022Z,12.20
2023-02-23T08:59:12.897Z,12.20
2023-02-23T09:01:44.987Z,12.30
2023-02-23T09:04:18.298Z,12.30
2023-02-23T09:06:50.639Z,12.30
2023-02-23T09:09:22.691Z,12.30
2023-02-23T09:11:59.096Z,12.30
2023-02-23T09:14:32.378Z,12.40
2023-02-23T09:17:04.528Z,12.40
2023-02-23T09:19:36.651Z,12.40
2023-02-23T09:22:08.711Z,12.40
2023-02-23T09:24:40.729Z,12.40
2023-02-23T09:27:15.588Z,12.40
2023-02-23T09:29:47.812Z,12.50
2023-02-23T09:32:19.947Z,12.50
2023-02-23T09:34:52.652Z,12.60
2023-02-23T09:37:25.289Z,12.60
2023-02-23T09:39:58.152Z,12.60
2023-02-23T09:42:47.701Z,12.60
2023-02-23T09:45:32.712Z,12.60
2023-02-23T09:48:13.075Z,12.60
2023-02-23T09:50:48.867Z,12.60
2023-02-23T09:53:35.790Z,12.70
2023-02-23T09:56:18.784Z,12.70
2023-02-23T09:58:55.489Z,12.70
2023-02-23T10:02:00.324Z,12.80
2023-02-23T10:04:40.865Z,12.90
2023-02-23T10:07:19.035Z,12.90
2023-02-23T10:10:15.917Z,13.00
2023-02-23T10:12:55.177Z,13.00
2023-02-23T10:15:40.828Z,13.10
2023-02-23T10:18:23.274Z,13.10
2023-02-23T10:21:05.654Z,13.20
2023-02-23T10:23:40.779Z,13.20
2023-02-23T10:26:15.667Z,13.30
2023-02-23T10:28:47.914Z,13.40
2023-02-23T10:31:28.420Z,13.40
2023-02-23T10:34:03.299Z,13.50
2023-02-23T10:36:36.421Z,13.60
2023-02-23T10:39:09.096Z,13.70
2023-02-23T10:41:42.038Z,13.80
2023-02-23T10:44:18.037Z,13.90
2023-02-23T10:46:55.709Z,14.00
2023-02-23T10:49:31.735Z,14.20
2023-02-23T10:52:03.691Z,14.30
2023-02-23T10:54:36.550Z,14.40
2023-02-23T10:57:08.891Z,14.50
2023-02-23T10:59:42.026Z,14.60
2023-02-23T11:02:23.415Z,14.70
2023-02-23T11:04:57.050Z,14.80
2023-02-23T11:07:29.943Z,14.80
2023-02-23T11:10:26.140Z,14.90
2023-02-23T11:12:58.049Z,15.00
2023-02-23T11:15:48.049Z,15.00
2023-02-23T11:18:24.971Z,15.00
2023-02-23T11:20:57.116Z,15.10
2023-02-23T11:23:30.097Z,15.10
2023-02-23T11:26:03.012Z,15.10
2023-02-23T11:28:38.974Z,15.10
2023-02-23T11:31:14.982Z,15.20
2023-02-23T11:33:50.255Z,15.20
2023-02-23T11:36:27.020Z,15.20
2023-02-23T11:39:04.424Z,15.10
2023-02-23T11:41:37.566Z,15.00
2023-02-23T11:44:19.604Z,15.00
2023-02-23T11:46:52.210Z,14.90
2023-02-23T11:49:29.400Z,14.80
2023-02-23T11:52:01.452Z,14.80
2023-02-23T11:54:34.114Z,14.80
2023-02-23T11:57:08.772Z,14.80
2023-02-23T11:59:41.264Z,14.80
2023-02-23T12:02:20.871Z,14.80
2023-02-23T12:05:02.412Z,14.80
2023-02-23T12:07:41.822Z,14.80
2023-02-23T12:10:16.443Z,14.80
2023-02-23T12:12:58.235Z,14.90
2023-02-23T12:15:39.940Z,14.90
2023-02-23T12:18:19.225Z,15.10
2023-02-23T12:20:56.120Z,15.50
2023-02-23T12:23:32.698Z,16.00
2023-02-23T12:26:11.665Z,16.50
2023-02-23T12:28:51.617Z,16.90
2023-02-23T12:31:28.506Z,17.30
2023-02-23T12:34:02.513Z,17.80
2023-02-23T12:36:40.151Z,18.40
2023-02-23T12:39:19.130Z,18.90
2023-02-23T12:41:59.456Z,19.30
2023-02-23T12:44:40.196Z,19.30
2023-02-23T12:47:21.863Z,19.20
2023-02-23T12:50:07.615Z,19.00
2023-02-23T12:52:48.140Z,18.90
2023-02-23T12:55:30.968Z,18.70
2023-02-23T12:58:07.965Z,18.50
2023-02-23T13:00:50.466Z,18.40
2023-02-23T13:03:40.818Z,18.30
2023-02-23T13:06:22.991Z,18.40
2023-02-23T13:09:11.351Z,18.30
2023-02-23T13:11:48.297Z,18.10
2023-02-23T13:14:23.391Z,18.00
2023-02-23T13:16:57.558Z,17.80
2023-02-23T13:19:34.076Z,17.60
2023-02-23T13:22:20.925Z,17.50
2023-02-23T13:24:58.549Z,17.40
2023-02-23T13:27:35.577Z,17.30
2023-02-23T13:30:11.366Z,17.20
2023-02-23T13:32:43.433Z,17.10
2023-02-23T13:35:17.335Z,17.10
2023-02-23T13:37:54.051Z,17.00
2023-02-23T13:40:35.782Z,16.90
2023-02-23T13:43:17.756Z,16.90
2023-02-23T13:46:03.497Z,16.80
2023-02-23T13:48:56.192Z,16.70
2023-02-23T13:51:37.600Z,16.60
2023-02-23T13:54:24.806Z,16.50
2023-02-23T13:57:01.950Z,16.40
2023-02-23T13:59:42.308Z,16.30
2023-02-23T14:02:34.712Z,16.20
2023-02-23T14:05:17.150Z,16.20
2023-02-23T14:07:53.740Z,16.10
2023-02-23T14:10:29.767Z,16.00
2023-02-23T14:13:27.594Z,16.00
2023-02-23T14:16:16.040Z,16.00
2023-02-23T14:18:58.010Z,16.00
2023-02-23T14:21:34.804Z,16.00
2023-02-23T14:24:17.810Z,16.00
2023-02-23T14:27:40.311Z,15.90
2023-02-23T14:30:22.801Z,15.90
2023-02-23T14:33:10.133Z,15.90
2023-02-23T14:35:53.023Z,15.90
2023-02-23T14:38:47.381Z,15.80
2023-02-23T14:41:22.352Z,15.80
2023-02-23T14:44:00.232Z,15.70
2023-02-23T14:46:37.350Z,15.70
2023-02-23T14:49:17.702Z,15.70
2023-02-23T14:51:52.600Z,15.70
2023-02-23T14:54:29.912Z,15.70
2023-02-23T14:57:04.828Z,15.70
2023-02-23T14:59:42.824Z,15.60
2023-02-23T15:02:24.325Z,15.60
2023-02-23T15:04:56.811Z,15.50
2023-02-23T15:07:32.962Z,15.50
2023-02-23T15:10:10.592Z,15.50
2023-02-23T15:12:42.912Z,15.50
2023-02-23T15:15:18.522Z,15.40
2023-02-23T15:17:56.307Z,15.40
2023-02-23T15:23:09.150Z,15.30
2023-02-23T15:25:41.685Z,15.30
2023-02-23T15:28:32.653Z,15.20
2023-02-23T15:31:12.883Z,15.30
2023-02-23T15:33:50.892Z,15.20
2023-02-23T15:36:28.725Z,15.20
2023-02-23T15:39:03.950Z,15.20
2023-02-23T15:41:38.428Z,15.20
2023-02-23T15:44:15.019Z,15.10
2023-02-23T15:46:52.708Z,15.10
2023-02-23T15:49:31.851Z,15.00
2023-02-23T15:52:07.280Z,15.00
2023-02-23T15:54:50.738Z,15.00
2023-02-23T15:57:30.499Z,15.00
2023-02-23T16:00:16.554Z,15.00
2023-02-23T16:02:49.004Z,15.00
2023-02-23T16:05:25.891Z,15.00
2023-02-23T16:08:06.345Z,15.00
2023-02-23T16:10:47.078Z,15.00
2023-02-23T16:13:21.767Z,15.00
2023-02-23T16:15:55.137Z,14.90
2023-02-23T16:18:37.213Z,14.90
2023-02-23T16:21:17.085Z,14.90
2023-02-23T16:23:52.205Z,14.90
2023-02-23T16:26:27.248Z,14.90
2023-02-23T16:29:02.148Z,14.80
2023-02-23T16:31:43.532Z,14.90
2023-02-23T16:34:23.983Z,14.80
2023-02-23T16:37:00.808Z,14.90
2023-02-23T16:39:34.358Z,14.80
2023-02-23T16:42:06.402Z,14.80
2023-02-23T16:44:43.705Z,14.80
2023-02-23T16:47:37.978Z,14.80
2023-02-23T16:50:20.193Z,14.70
2023-02-23T16:52:55.669Z,14.70
2023-02-23T16:55:29.220Z,14.60
2023-02-23T16:58:03.990Z,14.60
2023-02-23T17:00:36.365Z,14.50
2023-02-23T17:03:16.451Z,14.50
2023-02-23T17:05:48.861Z,14.50
2023-02-23T17:08:24.530Z,14.50
2023-02-23T17:10:57.453Z,14.50
2023-02-23T17:13:33.357Z,14.40
2023-02-23T17:16:07.822Z,14.40
2023-02-23T17:18:42.804Z,14.40
2023-02-23T17:21:16.283Z,14.40
2023-02-23T17:24:02.982Z,14.40
2023-02-23T17:26:35.504Z,14.40
2023-02-23T17:29:11.279Z,14.40
2023-02-23T17:31:43.445Z,14.30
2023-02-23T17:34:15.567Z,14.30
2023-02-23T17:36:47.387Z,14.30
2023-02-23T17:39:22.106Z,14.20
2023-02-23T17:41:55.379Z,14.20
2023-02-23T17:44:29.458Z,14.20
2023-02-23T17:47:01.570Z,14.20
2023-02-23T17:49:33.604Z,14.20
2023-02-23T17:52:05.925Z,14.20
2023-02-23T17:54:40.577Z,14.20
2023-02-23T17:57:13.348Z,14.20
2023-02-23T17:59:45.419Z,14.20
2023-02-23T18:02:20.871Z,14.20
2023-02-23T18:04:53.190Z,14.10
2023-02-23T18:07:25.315Z,14.20
2023-02-23T18:09:59.947Z,14.40
2023-02-23T18:12:32.583Z,14.60
2023-02-23T18:15:05.653Z,14.90
2023-02-23T18:17:37.869Z,15.20
2023-02-23T18:20:15.051Z,15.50
2023-02-23T18:22:47.394Z,15.90
2023-02-23T18:25:25.591Z,16.20
2023-02-23T18:27:59.234Z,16.50
2023-02-23T18:30:31.358Z,16.80
2023-02-23T18:33:04.490Z,17.10
2023-02-23T18:35:39.047Z,17.30
2023-02-23T18:38:14.160Z,17.50
2023-02-23T18:40:49.139Z,17.60
2023-02-23T18:43:21.157Z,17.80
2023-02-23T18:45:53.184Z,17.90
2023-02-23T18:48:25.339Z,18.00
2023-02-23T18:50:59.226Z,18.10
2023-02-23T18:53:31.606Z,18.20
2023-02-23T18:56:12.534Z,18.30
2023-02-23T18:58:45.170Z,18.40
2023-02-23T19:01:20.806Z,18.40
2023-02-23T19:03:54.029Z,18.40
2023-02-23T19:06:26.959Z,18.40
2023-02-23T19:09:00.171Z,18.30
2023-02-23T19:11:36.026Z,18.30
2023-02-23T19:14:10.617Z,18.40
2023-02-23T19:16:43.579Z,18.40
2023-02-23T19:19:16.205Z,18.40
2023-02-23T19:21:48.223Z,18.50
2023-02-23T19:24:20.727Z,18.50
2023-02-23T19:26:55.329Z,18.60
2023-02-23T19:29:27.416Z,18.60
2023-02-23T19:31:59.576Z,18.60
2023-02-23T19:34:31.698Z,18.60
2023-02-23T19:37:03.865Z,18.60
2023-02-23T19:39:36.295Z,18.50
2023-02-23T19:42:10.949Z,18.60
2023-02-23T19:44:43.235Z,18.50
2023-02-23T19:47:15.285Z,18.60
2023-02-23T19:49:47.360Z,18.50
2023-02-23T19:52:19.584Z,18.40
2023-02-23T19:54:54.130Z,18.40
2023-02-23T19:57:28.928Z,18.30
2023-02-23T20:00:00.955Z,18.30
2023-02-23T20:02:33.130Z,18.20
2023-02-23T20:05:05.679Z,18.10
2023-02-23T20:07:37.809Z,18.10
2023-02-23T20:10:16.132Z,18.10
2023-02-23T20:12:51.049Z,18.10
2023-02-23T20:15:23.047Z,18.00
2023-02-23T20:17:55.061Z,18.00
2023-02-23T20:20:29.437Z,17.90
2023-02-23T20:23:07.942Z,17.90
2023-02-23T20:25:44.395Z,17.80
2023-02-23T20:28:19.029Z,17.80
2023-02-23T20:30:51.378Z,17.80
2023-02-23T20:33:23.424Z,17.90
2023-02-23T20:35:55.565Z,17.90
2023-02-23T20:38:27.618Z,17.90
2023-02-23T20:41:03.153Z,17.90
2023-02-23T20:43:39.234Z,17.90
2023-02-23T20:46:20.191Z,17.90
2023-02-23T20:48:52.294Z,17.80
2023-02-23T20:51:27.566Z,17.70
2023-02-23T20:54:19.987Z,17.70
2023-02-23T20:57:07.730Z,17.60
2023-02-23T20:59:48.951Z,17.60
2023-02-23T21:02:21.265Z,17.60
2023-02-23T21:04:53.511Z,17.50
2023-02-23T21:07:25.564Z,17.40
2023-02-23T21:10:00.521Z,17.50
2023-02-23T21:12:32.545Z,17.50
2023-02-23T21:15:09.380Z,17.50
2023-02-23T21:17:45.034Z,17.50
2023-02-23T21:20:20.029Z,17.50
2023-02-23T21:22:53.224Z,17.60
2023-02-23T21:25:26.348Z,17.60
2023-02-23T21:28:02.111Z,17.60
2023-02-23T21:30:39.471Z,17.60
2023-02-23T21:33:11.535Z,17.70
2023-02-23T21:35:46.710Z,17.70
2023-02-23T21:38:19.320Z,17.70
2023-02-23T21:40:51.592Z,17.70
2023-02-23T21:43:28.059Z,17.60
2023-02-23T21:46:10.054Z,17.60
2023-02-23T21:48:43.088Z,17.50
2023-02-23T21:51:16.343Z,17.50
2023-02-23T21:53:48.325Z,17.40
2023-02-23T21:56:24.550Z,17.40
2023-02-23T21:58:56.744Z,17.40
2023-02-23T22:01:36.526Z,17.40
2023-02-23T22:04:11.661Z,17.30
2023-02-23T22:06:44.666Z,17.30
2023-02-23T22:09:16.751Z,17.30
2023-02-23T22:11:51.742Z,17.30
2023-02-23T22:14:24.193Z,17.20
2023-02-23T22:16:59.175Z,17.10
2023-02-23T22:19:31.471Z,17.10
2023-02-23T22:22:03.527Z,17.10
2023-02-23T22:24:35.530Z,17.00
2023-02-23T22:27:07.845Z,17.00
2023-02-23T22:29:39.837Z,17.00
2023-02-23T22:32:14.697Z,16.90
2023-02-23T22:34:46.868Z,16.80
2023-02-23T22:37:22.004Z,16.80
2023-02-23T22:39:54.213Z,16.90
2023-02-23T22:42:29.682Z,16.90
2023-02-23T22:45:01.814Z,16.80
2023-02-23T22:47:36.704Z,16.80
2023-02-23T22:50:12.175Z,16.90
2023-02-23T22:52:44.361Z,16.90
2023-02-23T22:55:16.652Z,17.00
2023-02-23T22:57:48.861Z,16.90
2023-02-23T23:00:21.638Z,16.90
2023-02-23T23:02:56.216Z,16.90
2023-02-23T23:05:28.300Z,16.90
2023-02-23T23:08:00.315Z,16.90
2023-02-23T23:10:32.373Z,16.80
2023-02-23T23:13:05.381Z,16.80
2023-02-23T23:15:40.703Z,16.80
2023-02-23T23:18:20.830Z,16.90
2023-02-23T23:20:55.456Z,17.00
2023-02-23T23:23:27.450Z,16.90
2023-02-23T23:26:00.035Z,17.00
2023-02-23T23:28:40.126Z,17.00
2023-02-23T23:31:12.167Z,17.00
2023-02-23T23:33:49.613Z,17.10
2023-02-23T23:36:24.126Z,17.10
2023-02-23T23:38:56.858Z,17.10
2023-02-23T23:41:30.790Z,17.00
2023-02-23T23:44:05.366Z,17.00
2023-02-23T23:46:42.688Z,16.90
2023-02-23T23:49:19.480Z,16.90
2023-02-23T23:51:56.278Z,16.90
2023-02-23T23:54:32.972Z,16.90
2023-02-23T23:57:06.884Z,16.90
2023-02-23T23:59:46.009Z,16.90
